Terminal Aerodrome Forecast
Issued by NWS Houston/Galveston, TX

Home | Current Version | Previous Version | Text Only | Print | Product List | Glossary On
Versions: 1 2 3 4 5 6 7 8 9 10 11 12 13 14 15 16 17 18 19
000
FTUS44 KHGX 292320
TAFGLS
TAF
KGLS 292320Z 3000/3024 14009KT P6SM SCT025 SCT250
     FM300800 17008KT P6SM SCT015
     FM301500 13009KT P6SM SCT025=

USA.gov is the U.S. government's official web portal to all federal, state and local government web resources and services.